Track Хрипун Алексей

Time Latitude Longitude Accuracy (66% radius in meters) Altitude (meters) Speed (km/hour) Bearing (degrees) Battery (%) GPS flag
09:38:23 60.403953 30.334007 8 51.9 0 136.75 4 1 delete
09:38:16 60.403995 30.334013 8 54.7 0.7712550163269 136.75 4 1 delete
09:36:48 60.404088 30.334027 8 60 0 128.25999450684 4 1 delete
09:36:43 60.404168 30.333918 13 57.7 0 128.25999450684 4 1 delete
09:36:39 60.403992 30.334047 13 56.8 0.75582993030548 128.25999450684 4 1 delete
09:36:33 60.404263 30.333818 14 54 0 128.25999450684 4 1 delete
09:36:32 60.403995 30.334042 8 54 0 128.25999450684 4 1 delete
09:35:45 60.404263 30.333818 9 54 0 128.25999450684 4 1 delete
09:35:44 60.404120 30.333977 8 54 0 128.25999450684 4 1 delete
09:33:25 60.404272 30.333820 8 54.4 0 128.25999450684 4 1 delete
09:33:14 60.404333 30.333670 8 62.8 1.3111335039139 130.96000671387 4 1 delete
09:33:11 60.404403 30.333533 8 57.4 2.755951166153 146.57000732422 4 1 delete
09:33:08 60.404482 30.333440 8 54.5 1.9692710638046 169.77000427246 4 1 delete
09:33:05 60.404595 30.333365 8 52.4 2.2931981086731 158.53999328613 4 1 delete
09:33:03 60.404710 30.333375 8 51.6 2.5142912864685 128.30000305176 4 1 delete
09:32:59 60.404882 30.333268 8 51.3 2.4782993793488 123.63999938965 4 1 delete
09:32:49 60.404955 30.333150 8 49.7 2.7713761329651 149.91999816895 4 1 delete
09:32:47 60.405032 30.333050 8 48.7 2.94105219841 141.25 4 1 delete
09:32:45 60.405112 30.332935 8 46.3 3.6917405128479 134.66999816895 4 1 delete
09:32:43 60.405182 30.332793 8 44 3.2855463027954 121.2799987793 4 1 delete
09:32:41 60.405258 30.332688 8 44.2 3.3421049118042 121.9700012207 4 1 delete
09:32:39 60.405355 30.332598 8 37.4 3.2289876937866 121.33999633789 4 1 delete
09:32:37 60.405462 30.332550 8 33.7 3.2598378658295 117.65000152588 4 1 delete
09:32:35 60.405567 30.332527 8 29.3 3.0695948600769 127.66999816895 4 1 delete
09:32:31 60.405725 30.332408 8 26.3 3.4603641033173 139.86000061035 4 1 delete
09:32:27 60.405832 30.332318 8 28.3 3.1312954425812 158.85000610352 4 1 delete
09:32:14 60.405923 30.332248 9 31.9 1.7995949983597 254.74000549316 4 1 delete
09:32:01 60.405992 30.332117 8 27.7 3.0850200653076 353.39999389648 4 1 delete
09:31:57 60.406070 30.332258 8 15 1.676194190979 87 4 1 delete
09:31:55 60.406148 30.332358 8 7.6 3.1210119724274 116.01999664307 4 1 delete
09:31:52 60.406247 30.332225 9 9.5 3.3575301170349 115.81999969482 4 1 delete
09:31:49 60.406323 30.332052 8 27.2 3.0130362510681 122.01000213623 4 1 delete
09:31:45 60.406397 30.331913 8 41 2.3960320949554 130.4700012207 4 1 delete
09:31:40 60.406477 30.331817 8 50.5 0.86380559206009 150.05000305176 4 1 delete
09:31:37 60.406600 30.331742 8 55.3 2.1492304801941 207.4700012207 4 1 delete
09:31:25 60.406742 30.331745 8 44.6 1.4191092252731 273.20999145508 4 1 delete
09:30:55 60.406868 30.331747 7 11.5 1.4088257551193 243.41000366211 4 1 delete
09:30:50 60.406943 30.331587 8 10.9 1.6196355819702 172.00999450684 4 1 delete
09:30:45 60.406938 30.331378 7 6.2 1.9384208917618 122.15000152588 4 1 delete
09:30:43 60.406953 30.331192 8 -5.9 1.4293925762177 152.72999572754 4 1 delete
09:30:40 60.406998 30.330952 8 -19.2 0.96663957834244 173.55999755859 4 1 delete
09:30:36 60.407088 30.330882 8 -15.5 6.5762343406677 209.63000488281 4 1 delete
09:30:33 60.407218 30.330925 7 -8.5 6.6019430160522 208.39999389648 4 1 delete
09:30:31 60.407337 30.331033 7 -5.8 6.6790680885315 206.00999450684 4 1 delete
09:30:28 60.407508 30.331132 7 3 6.0157890319824 203.74000549316 4 1 delete
09:30:17 60.407633 30.331258 7 17.9 1.9795544147491 153.5 4 1 delete
09:30:02 60.407727 30.331263 7 24.2 1.8561536073685 185.07000732422 4 1 delete
09:29:56 60.407808 30.331175 7 26.2 1.7276111841202 133.83000183105 4 1 delete
09:29:51 60.407902 30.331053 8 32.4 1.8355869054794 147.86999511719 4 1 delete
09:29:44 60.408117 30.331010 8 37.2 2.3291902542114 192.16999816895 4 1 delete